createdAt,value
2018-12-09T00:02:09.620Z,89.20
2018-12-09T00:04:35.767Z,89.50
2018-12-09T00:07:02.152Z,89.60
2018-12-09T00:09:28.468Z,89.50
2018-12-09T00:11:54.785Z,89.50
2018-12-09T00:14:21.090Z,89.70
2018-12-09T00:16:48.160Z,89.90
2018-12-09T00:19:14.292Z,90.00
2018-12-09T00:21:46.704Z,90.00
2018-12-09T00:24:13.074Z,90.00
2018-12-09T00:26:39.335Z,90.00
2018-12-09T00:29:06.578Z,90.10
2018-12-09T00:31:32.852Z,90.10
2018-12-09T00:33:59.943Z,90.10
2018-12-09T00:36:26.218Z,90.10
2018-12-09T00:38:53.648Z,90.20
2018-12-09T00:41:20.822Z,90.30
2018-12-09T00:43:47.337Z,90.20
2018-12-09T00:46:13.607Z,90.20
2018-12-09T00:48:39.875Z,90.40
2018-12-09T00:51:06.215Z,89.90
2018-12-09T00:53:32.492Z,90.00
2018-12-09T00:56:00.704Z,89.80
2018-12-09T00:58:26.857Z,90.00
2018-12-09T01:00:53.143Z,90.10
2018-12-09T01:03:19.408Z,90.30
2018-12-09T01:05:46.617Z,90.20
2018-12-09T01:08:19.183Z,90.20
2018-12-09T01:10:45.507Z,90.30
2018-12-09T01:13:11.801Z,90.50
2018-12-09T01:15:38.394Z,90.30
2018-12-09T01:18:04.702Z,90.30
2018-12-09T01:20:37.328Z,90.70
2018-12-09T01:23:03.729Z,90.50
2018-12-09T01:25:36.271Z,90.50
2018-12-09T01:28:02.679Z,90.50
2018-12-09T01:30:29.035Z,90.50
2018-12-09T01:32:56.518Z,90.50
2018-12-09T01:35:31.352Z,90.50
2018-12-09T01:37:57.610Z,90.50
2018-12-09T01:40:24.586Z,90.50
2018-12-09T01:42:50.875Z,90.40
2018-12-09T01:45:18.126Z,90.70
2018-12-09T01:47:45.129Z,90.40
2018-12-09T01:50:11.552Z,90.50
2018-12-09T01:52:37.732Z,90.70
2018-12-09T01:55:04.044Z,90.50
2018-12-09T01:57:30.335Z,90.60
2018-12-09T01:59:56.704Z,90.60
2018-12-09T02:02:23.208Z,90.50
2018-12-09T02:04:55.783Z,90.50
2018-12-09T02:07:22.165Z,90.60
2018-12-09T02:09:48.654Z,90.50
2018-12-09T02:12:15.320Z,90.50
2018-12-09T02:14:41.820Z,90.50
2018-12-09T02:17:08.177Z,90.60
2018-12-09T02:19:34.532Z,90.50
2018-12-09T02:22:00.943Z,90.50
2018-12-09T02:24:28.259Z,90.40
2018-12-09T02:27:00.826Z,90.40
2018-12-09T02:29:27.121Z,90.40
2018-12-09T02:31:53.392Z,90.40
2018-12-09T02:34:20.059Z,90.40
2018-12-09T02:36:46.468Z,90.20
2018-12-09T02:39:13.143Z,90.30
2018-12-09T02:41:39.490Z,90.40
2018-12-09T02:44:05.834Z,90.40
2018-12-09T02:46:33.032Z,90.40
2018-12-09T02:48:59.255Z,90.40
2018-12-09T02:51:26.547Z,90.40
2018-12-09T02:53:53.753Z,90.40
2018-12-09T02:56:26.357Z,90.30
2018-12-09T02:58:52.595Z,90.30
2018-12-09T03:01:18.980Z,90.30
2018-12-09T03:03:45.455Z,90.30
2018-12-09T03:06:11.951Z,90.20
2018-12-09T03:08:38.978Z,90.20
2018-12-09T03:11:05.772Z,90.20
2018-12-09T03:13:32.240Z,90.10
2018-12-09T03:15:58.678Z,90.10
2018-12-09T03:18:25.016Z,90.10
2018-12-09T03:20:51.320Z,90.20
2018-12-09T03:23:17.559Z,90.60
2018-12-09T03:25:43.676Z,90.20
2018-12-09T03:28:10.032Z,90.20
2018-12-09T03:30:36.368Z,90.30
2018-12-09T03:33:02.828Z,90.20
2018-12-09T03:35:29.896Z,90.10
2018-12-09T03:38:02.298Z,90.10
2018-12-09T03:40:28.826Z,90.10
2018-12-09T03:42:56.211Z,90.00
2018-12-09T03:45:22.462Z,89.90
2018-12-09T03:47:48.562Z,90.00
2018-12-09T03:50:20.945Z,90.00
2018-12-09T03:52:47.216Z,90.00
2018-12-09T03:55:19.923Z,90.00
2018-12-09T03:57:46.181Z,90.00
2018-12-09T04:00:12.917Z,90.10
2018-12-09T04:02:39.173Z,90.20
2018-12-09T04:05:05.637Z,90.30
2018-12-09T04:07:31.988Z,90.30
2018-12-09T04:09:58.384Z,90.70
2018-12-09T04:12:24.608Z,90.30
2018-12-09T04:14:50.884Z,90.40
2018-12-09T04:17:18.452Z,90.40
2018-12-09T04:19:44.797Z,90.40
2018-12-09T04:22:10.961Z,90.30
2018-12-09T04:24:37.308Z,90.30
2018-12-09T04:27:03.944Z,90.60
2018-12-09T04:29:30.371Z,90.70
2018-12-09T04:31:56.769Z,90.30
2018-12-09T04:34:23.000Z,90.40
2018-12-09T04:36:49.360Z,90.40
2018-12-09T04:39:15.624Z,90.40
2018-12-09T04:41:41.955Z,90.30
2018-12-09T04:44:14.469Z,90.30
2018-12-09T04:46:41.035Z,90.30
2018-12-09T04:49:07.156Z,90.30
2018-12-09T04:51:45.381Z,90.30
2018-12-09T04:54:11.539Z,90.30
2018-12-09T04:56:37.817Z,90.20
2018-12-09T04:59:15.227Z,90.30
2018-12-09T05:01:42.207Z,90.30
2018-12-09T05:04:08.439Z,90.30
2018-12-09T05:06:34.616Z,90.30
2018-12-09T05:09:00.784Z,90.30
2018-12-09T05:11:27.099Z,90.40
2018-12-09T05:13:53.349Z,90.40
2018-12-09T05:16:19.605Z,90.40
2018-12-09T05:18:45.831Z,90.50
2018-12-09T05:21:12.088Z,90.50
2018-12-09T05:23:38.459Z,90.00
2018-12-09T05:26:04.607Z,90.00
2018-12-09T05:28:37.210Z,90.00
2018-12-09T05:31:03.467Z,90.10
2018-12-09T05:33:29.602Z,90.00
2018-12-09T05:35:55.993Z,90.20
2018-12-09T05:38:22.254Z,90.50
2018-12-09T05:40:49.581Z,90.20
2018-12-09T05:43:16.073Z,90.10
2018-12-09T05:45:42.318Z,90.20
2018-12-09T05:48:08.548Z,90.10
2018-12-09T05:50:34.896Z,90.00
2018-12-09T05:53:01.025Z,90.20
2018-12-09T05:55:27.719Z,90.20
2018-12-09T05:57:53.952Z,90.30
2018-12-09T06:00:20.612Z,90.30
2018-12-09T06:02:52.815Z,90.20
2018-12-09T06:05:20.290Z,90.50
2018-12-09T06:07:47.032Z,90.30
2018-12-09T06:10:13.336Z,90.40
2018-12-09T06:12:39.676Z,90.40
2018-12-09T06:15:06.302Z,90.50
2018-12-09T06:17:39.023Z,90.40
2018-12-09T06:20:05.530Z,90.40
2018-12-09T06:22:31.766Z,90.40
2018-12-09T06:24:57.924Z,90.40
2018-12-09T06:27:24.215Z,90.40
2018-12-09T06:29:50.487Z,90.40
2018-12-09T06:32:16.663Z,90.40
2018-12-09T06:34:44.300Z,90.40
2018-12-09T06:37:10.647Z,90.50
2018-12-09T06:39:37.690Z,90.40
2018-12-09T06:42:04.148Z,90.40
2018-12-09T06:44:30.531Z,90.40
2018-12-09T06:46:56.908Z,90.50
2018-12-09T06:49:23.195Z,90.40
2018-12-09T06:51:50.188Z,90.40
2018-12-09T06:54:16.504Z,90.40
2018-12-09T06:56:42.631Z,90.30
2018-12-09T06:59:15.233Z,90.30
2018-12-09T07:01:41.786Z,90.20
2018-12-09T07:04:08.064Z,90.20
2018-12-09T07:06:34.307Z,90.40
2018-12-09T07:09:00.552Z,90.30
2018-12-09T07:11:26.773Z,90.30
2018-12-09T07:13:53.020Z,90.30
2018-12-09T07:16:19.586Z,90.40
2018-12-09T07:18:52.483Z,90.60
2018-12-09T07:21:25.193Z,90.30
2018-12-09T07:23:53.412Z,90.20
2018-12-09T07:26:19.714Z,90.30
2018-12-09T07:28:52.156Z,90.20
2018-12-09T07:31:18.419Z,90.20
2018-12-09T07:33:51.144Z,90.60
2018-12-09T07:36:23.841Z,90.20
2018-12-09T07:38:50.411Z,90.10
2018-12-09T07:41:16.676Z,90.20
2018-12-09T07:43:43.072Z,90.20
2018-12-09T07:46:09.467Z,90.30
2018-12-09T07:48:35.782Z,90.30
2018-12-09T07:51:03.147Z,90.30
2018-12-09T07:53:29.483Z,90.20
2018-12-09T07:55:56.424Z,90.20
2018-12-09T07:58:22.700Z,90.20
2018-12-09T08:00:49.134Z,90.10
2018-12-09T08:03:15.414Z,90.20
2018-12-09T08:05:47.827Z,90.20
2018-12-09T08:08:14.053Z,90.50
2018-12-09T08:10:40.242Z,90.30
2018-12-09T08:13:06.482Z,90.30
2018-12-09T08:15:34.143Z,90.30
2018-12-09T08:18:07.040Z,90.40
2018-12-09T08:20:33.491Z,90.30
2018-12-09T08:23:06.044Z,90.40
2018-12-09T08:25:38.666Z,90.40
2018-12-09T08:28:05.258Z,90.40
2018-12-09T08:30:37.933Z,90.40
2018-12-09T08:33:04.320Z,90.40
2018-12-09T08:35:30.929Z,90.50
2018-12-09T08:37:57.174Z,90.50
2018-12-09T08:40:29.609Z,90.60
2018-12-09T08:42:55.725Z,90.60
2018-12-09T08:45:28.354Z,90.60
2018-12-09T08:47:55.029Z,90.60
2018-12-09T08:50:21.291Z,90.60
2018-12-09T08:52:47.412Z,90.60
2018-12-09T08:55:19.869Z,90.60
2018-12-09T08:57:46.125Z,90.60
2018-12-09T09:00:16.642Z,90.70
2018-12-09T09:02:49.207Z,90.60
2018-12-09T09:05:15.543Z,90.60
2018-12-09T09:07:42.339Z,90.80
2018-12-09T09:10:08.896Z,90.80
2018-12-09T09:12:35.263Z,90.70
2018-12-09T09:15:01.920Z,90.80
2018-12-09T09:17:27.993Z,90.80
2018-12-09T09:19:54.225Z,90.70
2018-12-09T09:22:21.061Z,90.80
2018-12-09T09:24:47.398Z,90.90
2018-12-09T09:27:19.879Z,91.10
2018-12-09T09:29:47.460Z,90.70
2018-12-09T09:32:13.635Z,90.80
2018-12-09T09:34:40.024Z,90.80
2018-12-09T09:37:12.764Z,90.80
2018-12-09T09:39:39.217Z,90.80
2018-12-09T09:42:05.327Z,91.00
2018-12-09T09:44:31.755Z,90.80
2018-12-09T09:46:58.040Z,90.70
2018-12-09T09:49:24.379Z,90.60
2018-12-09T09:51:50.878Z,91.00
2018-12-09T09:54:23.412Z,90.60
2018-12-09T09:56:49.555Z,90.60
2018-12-09T09:59:15.787Z,90.50
2018-12-09T10:01:42.955Z,90.50
2018-12-09T10:04:09.431Z,90.60
2018-12-09T10:06:41.911Z,90.60
2018-12-09T10:09:14.431Z,90.70
2018-12-09T10:11:40.866Z,90.60
2018-12-09T10:14:13.279Z,90.70
2018-12-09T10:16:39.748Z,90.60
2018-12-09T10:19:06.864Z,90.70
2018-12-09T10:21:39.327Z,90.60
2018-12-09T10:24:12.799Z,90.60
2018-12-09T10:26:39.159Z,90.60
2018-12-09T10:29:05.557Z,90.50
2018-12-09T10:31:37.799Z,90.70
2018-12-09T10:34:04.431Z,90.70
2018-12-09T10:36:30.938Z,90.60
2018-12-09T10:38:58.124Z,90.50
2018-12-09T10:41:30.907Z,90.40
2018-12-09T10:43:57.112Z,90.40
2018-12-09T10:46:24.591Z,90.40
2018-12-09T10:48:51.535Z,90.40
2018-12-09T10:51:18.823Z,90.40
2018-12-09T10:53:51.180Z,90.40
2018-12-09T10:56:17.546Z,90.40
2018-12-09T10:58:49.900Z,90.20
2018-12-09T11:01:22.222Z,90.30
2018-12-09T11:03:55.567Z,90.30
2018-12-09T11:06:28.353Z,90.10
2018-12-09T11:08:54.769Z,89.90
2018-12-09T11:11:21.078Z,89.70
2018-12-09T11:13:58.076Z,89.80
2018-12-09T11:16:21.790Z,90.00
2018-12-09T11:18:48.339Z,89.90
2018-12-09T11:21:14.673Z,89.50
2018-12-09T11:23:41.132Z,89.40
2018-12-09T11:29:07.235Z,89.30
2018-12-09T11:31:39.848Z,88.80
2018-12-09T11:34:12.588Z,88.50
2018-12-09T11:36:39.061Z,88.20
2018-12-09T11:39:05.708Z,88.20
2018-12-09T11:41:32.621Z,88.40
2018-12-09T11:43:58.965Z,88.60
2018-12-09T11:46:25.472Z,88.50
2018-12-09T11:48:52.798Z,88.40
2018-12-09T11:51:19.332Z,88.40
2018-12-09T11:53:45.828Z,87.70
2018-12-09T11:56:13.160Z,87.10
2018-12-09T11:58:44.659Z,87.40
2018-12-09T12:01:11.982Z,87.10
2018-12-09T12:03:44.372Z,86.90
2018-12-09T12:06:10.777Z,86.90
2018-12-09T12:08:37.043Z,86.80
2018-12-09T12:11:03.447Z,85.90
2018-12-09T12:13:30.347Z,86.40
2018-12-09T12:16:03.184Z,86.10
2018-12-09T12:18:29.886Z,85.40
2018-12-09T12:21:02.598Z,85.20
2018-12-09T12:23:29.461Z,85.30
2018-12-09T12:25:56.174Z,84.50
2018-12-09T12:28:22.505Z,84.20
2018-12-09T12:30:55.327Z,84.50
2018-12-09T12:33:21.635Z,84.50
2018-12-09T12:35:47.883Z,84.20
2018-12-09T12:38:14.295Z,84.60
2018-12-09T12:40:47.032Z,84.70
2018-12-09T12:43:18.630Z,85.50
2018-12-09T12:45:45.919Z,85.80
2018-12-09T12:48:12.485Z,83.70
2018-12-09T12:50:39.796Z,84.30
2018-12-09T12:53:06.029Z,85.10
2018-12-09T12:55:32.682Z,85.40
2018-12-09T12:57:59.084Z,86.00
2018-12-09T13:00:25.487Z,86.90
2018-12-09T13:02:58.071Z,87.20
2018-12-09T13:05:24.668Z,87.90
2018-12-09T13:07:51.043Z,87.90
2018-12-09T13:10:17.478Z,88.00
2018-12-09T13:12:43.819Z,88.20
2018-12-09T13:15:10.138Z,88.10
2018-12-09T13:17:36.690Z,88.80
2018-12-09T13:20:04.954Z,88.30
2018-12-09T13:22:52.587Z,88.70
2018-12-09T13:25:19.876Z,88.90
2018-12-09T13:27:46.341Z,89.10
2018-12-09T13:30:13.441Z,89.10
2018-12-09T13:32:39.810Z,88.90
2018-12-09T13:35:12.739Z,88.70
2018-12-09T13:37:39.977Z,88.70
2018-12-09T13:40:12.987Z,89.60
2018-12-09T13:42:39.365Z,89.20
2018-12-09T13:45:06.143Z,88.90
2018-12-09T13:50:32.512Z,88.90
2018-12-09T13:53:05.234Z,89.00
2018-12-09T13:55:32.531Z,89.50
2018-12-09T13:57:58.956Z,89.10
2018-12-09T14:00:25.503Z,89.00
2018-12-09T14:02:51.966Z,89.10
2018-12-09T14:05:18.312Z,89.30
2018-12-09T14:07:50.843Z,89.30
2018-12-09T14:10:17.949Z,89.20
2018-12-09T14:12:44.195Z,89.10
2018-12-09T14:15:10.755Z,89.10
2018-12-09T14:17:37.187Z,89.10
2018-12-09T14:20:05.085Z,89.40
2018-12-09T14:22:31.419Z,89.40
2018-12-09T14:24:57.669Z,89.40
2018-12-09T14:27:24.270Z,89.20
2018-12-09T14:29:56.949Z,89.30
2018-12-09T14:32:23.322Z,89.40
2018-12-09T14:34:49.694Z,89.30
2018-12-09T14:37:16.265Z,89.30
2018-12-09T14:39:49.155Z,89.60
2018-12-09T14:42:16.430Z,89.40
2018-12-09T14:44:42.893Z,89.20
2018-12-09T14:47:09.361Z,89.00
2018-12-09T14:49:35.796Z,89.00
2018-12-09T14:52:02.286Z,88.80
2018-12-09T14:54:28.833Z,89.00
2018-12-09T14:56:55.453Z,88.70
2018-12-09T14:59:21.898Z,88.70
2018-12-09T15:01:48.524Z,88.70
2018-12-09T15:04:15.924Z,88.70
2018-12-09T15:06:42.687Z,88.50
2018-12-09T15:09:09.196Z,88.50
2018-12-09T15:11:35.806Z,88.40
2018-12-09T15:14:03.173Z,88.40
2018-12-09T15:16:29.355Z,88.30
2018-12-09T15:19:09.191Z,88.20
2018-12-09T15:21:41.511Z,88.20
2018-12-09T15:24:07.751Z,88.00
2018-12-09T15:26:34.160Z,87.80
2018-12-09T15:29:06.823Z,87.80
2018-12-09T15:31:33.295Z,87.60
2018-12-09T15:33:59.553Z,87.60
2018-12-09T15:36:26.043Z,87.50
2018-12-09T15:38:52.514Z,87.20
2018-12-09T15:41:25.211Z,87.50
2018-12-09T15:43:51.503Z,87.50
2018-12-09T15:46:17.862Z,87.60
2018-12-09T15:48:50.148Z,87.60
2018-12-09T15:51:16.727Z,87.60
2018-12-09T15:53:42.984Z,87.60
2018-12-09T15:56:09.426Z,87.60
2018-12-09T15:58:35.762Z,87.50
2018-12-09T16:01:02.567Z,87.50
2018-12-09T16:03:28.926Z,87.00
2018-12-09T16:08:58.800Z,86.90
2018-12-09T16:11:26.172Z,86.90
2018-12-09T16:13:59.735Z,87.00
2018-12-09T16:16:27.321Z,86.90
2018-12-09T16:19:00.944Z,86.90
2018-12-09T16:21:31.733Z,86.80
2018-12-09T16:24:05.300Z,87.00
2018-12-09T16:26:38.620Z,87.00
2018-12-09T16:29:11.163Z,86.90
2018-12-09T16:31:43.699Z,86.90
2018-12-09T16:34:09.891Z,87.60
2018-12-09T16:36:39.881Z,86.90
2018-12-09T16:39:06.144Z,86.80
2018-12-09T16:41:34.445Z,86.90
2018-12-09T16:44:03.031Z,86.70
2018-12-09T16:46:29.427Z,86.70
2018-12-09T16:49:02.500Z,86.80
2018-12-09T16:51:35.326Z,86.80
2018-12-09T16:54:01.540Z,87.10
2018-12-09T16:56:36.304Z,87.30
2018-12-09T16:59:09.136Z,87.20
2018-12-09T17:01:42.563Z,87.00
2018-12-09T17:04:10.909Z,86.80
2018-12-09T17:06:37.123Z,86.90
2018-12-09T17:09:05.801Z,86.80
2018-12-09T17:11:32.767Z,86.70
2018-12-09T17:13:59.159Z,86.40
2018-12-09T17:16:31.171Z,86.20
2018-12-09T17:18:57.505Z,85.60
2018-12-09T17:21:30.957Z,85.60
2018-12-09T17:24:05.764Z,85.60
2018-12-09T17:26:32.915Z,85.70
2018-12-09T17:29:05.398Z,84.40
2018-12-09T17:31:28.596Z,84.40
2018-12-09T17:33:55.135Z,84.70
2018-12-09T17:36:21.920Z,84.80
2018-12-09T17:38:48.289Z,84.40
2018-12-09T17:41:14.742Z,84.00
2018-12-09T17:43:41.571Z,83.80
2018-12-09T17:46:07.850Z,84.40
2018-12-09T17:48:40.333Z,84.60
2018-12-09T17:51:06.938Z,84.70
2018-12-09T17:53:43.323Z,84.70
2018-12-09T17:56:15.980Z,84.50
2018-12-09T17:58:48.630Z,84.80
2018-12-09T18:01:20.710Z,84.80
2018-12-09T18:03:47.091Z,84.80
2018-12-09T18:06:26.602Z,84.60
2018-12-09T18:08:53.086Z,84.60
2018-12-09T18:11:25.616Z,84.90
2018-12-09T18:13:58.087Z,84.80
2018-12-09T18:16:25.391Z,84.80
2018-12-09T18:18:57.897Z,84.60
2018-12-09T18:21:24.563Z,84.60
2018-12-09T18:23:57.464Z,84.60
2018-12-09T18:26:30.177Z,84.60
2018-12-09T18:29:03.032Z,84.50
2018-12-09T18:31:34.027Z,84.50
2018-12-09T18:34:06.607Z,84.60
2018-12-09T18:36:33.143Z,84.70
2018-12-09T18:38:59.509Z,84.60
2018-12-09T18:41:26.051Z,84.70
2018-12-09T18:43:52.632Z,84.70
2018-12-09T18:46:19.099Z,84.60
2018-12-09T18:48:53.046Z,84.50
2018-12-09T18:51:19.305Z,84.20
2018-12-09T18:53:45.908Z,84.00
2018-12-09T18:56:12.426Z,84.10
2018-12-09T18:58:38.999Z,83.90
2018-12-09T19:01:11.461Z,84.10
2018-12-09T19:03:38.444Z,83.70
2018-12-09T19:06:11.663Z,83.80
2018-12-09T19:08:38.468Z,83.90
2018-12-09T19:11:11.235Z,83.50
2018-12-09T19:13:37.728Z,83.30
2018-12-09T19:16:10.612Z,82.90
2018-12-09T19:18:37.029Z,82.90
2018-12-09T19:21:03.338Z,83.40
2018-12-09T19:23:30.016Z,82.80
2018-12-09T19:26:02.833Z,82.60
2018-12-09T19:28:35.697Z,82.80
2018-12-09T19:31:02.107Z,82.80
2018-12-09T19:33:33.613Z,83.20
2018-12-09T19:36:00.203Z,83.10
2018-12-09T19:38:26.769Z,83.30
2018-12-09T19:41:05.652Z,83.10
2018-12-09T19:43:32.392Z,82.80
2018-12-09T19:46:05.191Z,82.70
2018-12-09T19:48:35.331Z,82.50
2018-12-09T19:51:08.194Z,82.30
2018-12-09T19:53:34.635Z,82.40
2018-12-09T19:56:07.234Z,82.60
2018-12-09T19:58:34.231Z,82.60
2018-12-09T20:01:02.759Z,82.50
2018-12-09T20:03:35.273Z,82.60
2018-12-09T20:06:01.542Z,82.70
2018-12-09T20:08:31.244Z,82.80
2018-12-09T20:11:04.020Z,82.30
2018-12-09T20:13:30.744Z,82.10
2018-12-09T20:16:03.739Z,81.70
2018-12-09T20:18:36.200Z,81.90
2018-12-09T20:21:02.714Z,82.10
2018-12-09T20:23:44.016Z,82.20
2018-12-09T20:26:11.287Z,82.50
2018-12-09T20:28:37.824Z,82.40
2018-12-09T20:31:04.061Z,82.40
2018-12-09T20:33:31.122Z,82.40
2018-12-09T20:36:03.728Z,83.20
2018-12-09T20:38:35.148Z,82.60
2018-12-09T20:41:07.822Z,82.80
2018-12-09T20:43:34.019Z,82.40
2018-12-09T20:46:01.222Z,82.60
2018-12-09T20:48:27.737Z,82.50
2018-12-09T20:50:54.285Z,82.50
2018-12-09T20:53:20.668Z,82.40
2018-12-09T20:55:47.860Z,82.20
2018-12-09T20:58:23.070Z,81.70
2018-12-09T21:00:55.731Z,81.70
2018-12-09T21:03:22.003Z,81.40
2018-12-09T21:05:51.731Z,81.60
2018-12-09T21:08:24.160Z,81.30
2018-12-09T21:10:56.687Z,81.20
2018-12-09T21:13:22.943Z,80.90
2018-12-09T21:15:57.812Z,80.30
2018-12-09T21:18:30.843Z,80.50
2018-12-09T21:20:57.411Z,80.40
2018-12-09T21:23:27.010Z,80.30
2018-12-09T21:25:53.344Z,80.10
2018-12-09T21:28:21.725Z,80.00
2018-12-09T21:30:48.099Z,79.90
2018-12-09T21:33:20.711Z,80.10
2018-12-09T21:35:47.232Z,79.40
2018-12-09T21:38:13.375Z,79.50
2018-12-09T21:40:39.829Z,79.40
2018-12-09T21:43:10.219Z,79.30
2018-12-09T21:45:43.492Z,79.00
2018-12-09T21:48:09.863Z,79.30
2018-12-09T21:50:36.318Z,79.10
2018-12-09T21:53:02.936Z,79.10
2018-12-09T21:55:30.508Z,79.00
2018-12-09T21:58:18.636Z,79.20
2018-12-09T22:00:47.052Z,79.50
2018-12-09T22:03:13.360Z,79.10
2018-12-09T22:05:45.807Z,79.40
2018-12-09T22:08:16.149Z,79.50
2018-12-09T22:10:43.388Z,79.30
2018-12-09T22:13:10.765Z,79.50
2018-12-09T22:15:38.151Z,79.70
2018-12-09T22:18:05.558Z,79.90
2018-12-09T22:20:43.429Z,80.00
2018-12-09T22:23:09.675Z,80.20
2018-12-09T22:25:46.927Z,80.40
2018-12-09T22:28:15.328Z,80.20
2018-12-09T22:31:06.134Z,80.30
2018-12-09T22:33:43.832Z,80.40
2018-12-09T22:36:13.440Z,80.60
2018-12-09T22:38:46.912Z,80.60
2018-12-09T22:41:13.232Z,80.50
2018-12-09T22:43:41.636Z,80.70
2018-12-09T22:46:12.645Z,80.70
2018-12-09T22:48:46.407Z,80.60
2018-12-09T22:51:22.740Z,80.60
2018-12-09T22:53:59.465Z,80.40
2018-12-09T22:56:27.795Z,80.40
2018-12-09T22:58:53.975Z,80.40
2018-12-09T23:01:28.547Z,80.40
2018-12-09T23:04:01.129Z,81.00
2018-12-09T23:06:32.128Z,80.40
2018-12-09T23:09:04.475Z,80.60
2018-12-09T23:11:36.852Z,80.60
2018-12-09T23:14:03.140Z,80.80
2018-12-09T23:16:29.439Z,80.90
2018-12-09T23:19:02.805Z,81.60
2018-12-09T23:21:28.972Z,80.70
2018-12-09T23:23:56.178Z,80.80
2018-12-09T23:26:22.550Z,80.80
2018-12-09T23:28:54.759Z,80.90
2018-12-09T23:31:26.563Z,80.50
2018-12-09T23:33:53.771Z,80.30
2018-12-09T23:36:20.763Z,80.30
2018-12-09T23:38:47.255Z,80.40
2018-12-09T23:41:20.143Z,80.30
2018-12-09T23:43:51.332Z,80.30
2018-12-09T23:46:17.926Z,80.40
2018-12-09T23:48:50.763Z,80.30
2018-12-09T23:51:24.998Z,80.20
2018-12-09T23:54:04.699Z,80.10
2018-12-09T23:56:32.031Z,80.00
2018-12-09T23:58:58.311Z,79.70
